Time;durP1;ratioP1;P1;durP2;ratioP2;P2;SDS_P1;SDS_P2;PMS_P1;PMS_P2;Temp;Humidity;BMP_temperature;BMP_pressure;BME280_temperature;BME280_humidity;BME280_pressure;Samples;Min_cycle;Max_cycle;Signal;HPM_P1;HPM_P2
2023/09/14 00:00:26;;;;;;;5.95;2.90;;;;;;;;;;5014938;28;20511;-80
2023/09/14 00:02:52;;;;;;;8.15;3.30;;;;;;;;;;5014539;28;20128;-79
2023/09/14 00:05:18;;;;;;;10.02;3.55;;;;;;;;;;5033194;28;20049;-81
2023/09/14 00:07:44;;;;;;;8.07;2.95;;;;;;;;;;5034115;28;20498;-80
2023/09/14 00:10:11;;;;;;;8.18;2.90;;;;;;;;;;5016281;28;20072;-80
2023/09/14 00:12:37;;;;;;;9.23;3.15;;;;;;;;;;5016288;28;20498;-80
2023/09/14 00:15:03;;;;;;;9.90;3.08;;;;;;;;;;5016064;28;20125;-80
2023/09/14 00:17:29;;;;;;;8.93;2.97;;;;;;;;;;5016374;28;20087;-81
2023/09/14 00:19:55;;;;;;;8.25;3.17;;;;;;;;;;5015961;28;20132;-80
2023/09/14 00:22:21;;;;;;;7.70;3.08;;;;;;;;;;5015592;28;20058;-80
2023/09/14 00:24:47;;;;;;;5.97;2.90;;;;;;;;;;5016089;28;20047;-80
2023/09/14 00:27:13;;;;;;;9.63;3.50;;;;;;;;;;5032606;28;20053;-80
2023/09/14 00:29:40;;;;;;;7.95;3.10;;;;;;;;;;5033726;28;20489;-80
2023/09/14 00:32:06;;;;;;;7.60;3.28;;;;;;;;;;5020438;28;20049;-80
2023/09/14 00:34:32;;;;;;;8.48;3.30;;;;;;;;;;4996239;28;20121;-81
2023/09/14 00:36:58;;;;;;;6.53;2.70;;;;;;;;;;5014075;28;20149;-80
2023/09/14 00:39:24;;;;;;;6.50;2.80;;;;;;;;;;5013729;28;20038;-80
2023/09/14 00:41:50;;;;;;;5.60;2.58;;;;;;;;;;4996219;28;20076;-80
2023/09/14 00:44:16;;;;;;;9.38;2.95;;;;;;;;;;5011776;28;20414;-81
2023/09/14 00:46:42;;;;;;;6.78;2.78;;;;;;;;;;4996029;28;20091;-81
2023/09/14 00:49:08;;;;;;;7.47;2.70;;;;;;;;;;5013306;28;20050;-80
2023/09/14 00:51:34;;;;;;;6.40;2.75;;;;;;;;;;5012885;28;20129;-80
2023/09/14 00:54:03;;;;;;;8.38;2.45;;;;;;;;;;4996059;28;20390;-80
2023/09/14 00:56:29;;;;;;;5.63;2.47;;;;;;;;;;5013436;28;20054;-80
2023/09/14 00:58:55;;;;;;;5.43;2.60;;;;;;;;;;5011544;28;20041;-81
2023/09/14 01:01:22;;;;;;;9.23;2.83;;;;;;;;;;5010779;28;20073;-80
2023/09/14 01:03:48;;;;;;;6.75;2.33;;;;;;;;;;5013082;28;20053;-81
2023/09/14 01:06:14;;;;;;;7.05;2.58;;;;;;;;;;4995717;28;20107;-81
2023/09/14 01:08:41;;;;;;;6.80;2.75;;;;;;;;;;5011381;28;20133;-80
2023/09/14 01:11:07;;;;;;;5.78;2.58;;;;;;;;;;5013303;28;20390;-81
2023/09/14 01:13:51;;;;;;;7.30;2.38;;;;;;;;;;4995663;28;20370;-81
2023/09/14 01:16:25;;;;;;;8.52;2.72;;;;;;;;;;5012960;28;20037;-81
2023/09/14 01:18:53;;;;;;;8.85;2.90;;;;;;;;;;4995899;28;20100;-80
2023/09/14 01:21:38;;;;;;;7.43;2.38;;;;;;;;;;5013048;28;20076;-81
2023/09/14 01:24:07;;;;;;;7.70;2.65;;;;;;;;;;4995126;28;20080;-81
2023/09/14 01:26:33;;;;;;;8.43;2.47;;;;;;;;;;4995470;28;20050;-80
2023/09/14 01:29:00;;;;;;;9.05;2.53;;;;;;;;;;4995442;28;20378;-81
2023/09/14 01:31:28;;;;;;;7.95;2.30;;;;;;;;;;5013069;28;20045;-81
2023/09/14 01:33:54;;;;;;;7.45;2.80;;;;;;;;;;4995481;28;20394;-80
2023/09/14 01:36:23;;;;;;;8.00;2.58;;;;;;;;;;5012035;28;20078;-81
2023/09/14 01:38:51;;;;;;;8.77;2.47;;;;;;;;;;5027935;28;20103;-81
2023/09/14 01:41:18;;;;;;;9.98;2.28;;;;;;;;;;5029407;28;20057;-81
2023/09/14 01:43:45;;;;;;;8.85;2.28;;;;;;;;;;5032678;28;20053;-80
2023/09/14 01:46:11;;;;;;;5.00;2.15;;;;;;;;;;5031109;28;20045;-81
2023/09/14 01:48:37;;;;;;;7.13;2.40;;;;;;;;;;5032157;28;20041;-80
2023/09/14 01:51:03;;;;;;;5.72;2.20;;;;;;;;;;5030897;28;20094;-79
2023/09/14 01:53:30;;;;;;;7.80;2.30;;;;;;;;;;5031177;28;20045;-80
2023/09/14 01:55:56;;;;;;;8.48;2.40;;;;;;;;;;5014652;28;20045;-80
2023/09/14 01:58:22;;;;;;;7.35;2.53;;;;;;;;;;5032356;28;20042;-79
2023/09/14 02:00:48;;;;;;;8.52;2.60;;;;;;;;;;5031207;28;20052;-80
2023/09/14 02:03:14;;;;;;;6.82;2.30;;;;;;;;;;5035263;28;20049;-79
2023/09/14 02:05:40;;;;;;;6.22;2.20;;;;;;;;;;5036212;28;20060;-80
2023/09/14 02:08:06;;;;;;;5.85;2.30;;;;;;;;;;5035040;28;20053;-80
2023/09/14 02:10:32;;;;;;;8.02;2.72;;;;;;;;;;5018324;28;20152;-79
2023/09/14 02:12:58;;;;;;;5.90;2.28;;;;;;;;;;5034625;28;20041;-79
2023/09/14 02:15:24;;;;;;;8.27;2.67;;;;;;;;;;5033345;28;20065;-80
2023/09/14 02:17:51;;;;;;;8.43;2.60;;;;;;;;;;5033060;28;20065;-79
2023/09/14 02:20:17;;;;;;;6.15;2.65;;;;;;;;;;5035817;28;20103;-80
2023/09/14 02:22:43;;;;;;;7.75;2.67;;;;;;;;;;5035551;28;20444;-80
2023/09/14 02:25:09;;;;;;;6.18;2.67;;;;;;;;;;5036312;28;20053;-80
2023/09/14 02:27:35;;;;;;;4.65;2.33;;;;;;;;;;5033664;28;20049;-80
2023/09/14 02:30:01;;;;;;;5.93;2.58;;;;;;;;;;5033056;28;20045;-80
2023/09/14 02:32:28;;;;;;;7.38;2.70;;;;;;;;;;5018163;28;20037;-80
2023/09/14 02:34:54;;;;;;;7.25;2.42;;;;;;;;;;5034689;28;20134;-80
2023/09/14 02:37:20;;;;;;;7.05;2.80;;;;;;;;;;5035761;28;20041;-80
2023/09/14 02:39:46;;;;;;;8.98;3.53;;;;;;;;;;5034553;28;20045;-81
2023/09/14 02:42:12;;;;;;;5.60;2.40;;;;;;;;;;5017739;28;20052;-81
2023/09/14 02:44:38;;;;;;;6.30;2.83;;;;;;;;;;5018120;28;20037;-81
2023/09/14 02:47:05;;;;;;;5.68;2.75;;;;;;;;;;5018488;28;20107;-80
2023/09/14 02:49:31;;;;;;;8.45;2.80;;;;;;;;;;5035629;28;20521;-80
2023/09/14 02:51:57;;;;;;;7.38;3.10;;;;;;;;;;5017505;28;20204;-80
2023/09/14 02:54:23;;;;;;;7.28;3.15;;;;;;;;;;5017912;28;20045;-80
2023/09/14 02:56:49;;;;;;;5.97;2.97;;;;;;;;;;5034522;28;20056;-80
2023/09/14 02:59:18;;;;;;;6.05;2.85;;;;;;;;;;5034198;28;20417;-81
2023/09/14 03:01:44;;;;;;;6.47;2.95;;;;;;;;;;5017360;28;20046;-81
2023/09/14 03:04:10;;;;;;;9.88;2.97;;;;;;;;;;5017367;28;20056;-81
2023/09/14 03:06:36;;;;;;;7.40;3.10;;;;;;;;;;5033889;28;20494;-81
2023/09/14 03:09:02;;;;;;;8.60;2.90;;;;;;;;;;5017439;28;20486;-81
2023/09/14 03:11:28;;;;;;;11.90;2.88;;;;;;;;;;5034928;28;20507;-81
2023/09/14 03:13:54;;;;;;;7.32;3.10;;;;;;;;;;5016121;28;20048;-81
2023/09/14 03:16:20;;;;;;;9.68;2.97;;;;;;;;;;5017268;28;20057;-81
2023/09/14 03:18:46;;;;;;;8.68;2.65;;;;;;;;;;5041571;28;20037;-78
2023/09/14 03:21:24;;;;;;;8.50;3.17;;;;;;;;;;5050143;28;20042;-78
2023/09/14 03:23:51;;;;;;;7.10;2.80;;;;;;;;;;5019895;28;20092;-80
2023/09/14 03:26:17;;;;;;;8.10;2.92;;;;;;;;;;5031849;28;20088;-80
2023/09/14 03:28:43;;;;;;;7.25;2.58;;;;;;;;;;5017179;28;20037;-80
2023/09/14 03:31:10;;;;;;;6.20;2.47;;;;;;;;;;5035092;28;20103;-81
2023/09/14 03:33:37;;;;;;;7.30;2.53;;;;;;;;;;5016900;28;20092;-81
2023/09/14 03:36:03;;;;;;;7.50;2.60;;;;;;;;;;5034680;28;20049;-80
2023/09/14 03:38:29;;;;;;;5.80;2.33;;;;;;;;;;5031835;28;20064;-80
2023/09/14 03:40:55;;;;;;;8.90;2.33;;;;;;;;;;5017238;28;20092;-80
2023/09/14 03:43:21;;;;;;;7.15;2.70;;;;;;;;;;5016819;28;20089;-80
2023/09/14 03:45:48;;;;;;;6.78;2.53;;;;;;;;;;5034888;28;20045;-81
2023/09/14 03:48:14;;;;;;;8.40;2.75;;;;;;;;;;5033243;28;20048;-81
2023/09/14 03:50:42;;;;;;;6.18;2.63;;;;;;;;;;5033503;28;20402;-81
2023/09/14 03:53:10;;;;;;;6.32;2.53;;;;;;;;;;5034217;28;20049;-80
2023/09/14 03:55:36;;;;;;;5.47;2.33;;;;;;;;;;5033215;28;20088;-81
2023/09/14 03:58:02;;;;;;;7.95;2.90;;;;;;;;;;5032986;28;20128;-80
2023/09/14 04:00:29;;;;;;;7.70;2.80;;;;;;;;;;5034503;28;20045;-81
2023/09/14 04:02:55;;;;;;;9.25;2.97;;;;;;;;;;5032871;28;20145;-81
2023/09/14 04:05:21;;;;;;;11.30;3.30;;;;;;;;;;5034329;28;20358;-81
2023/09/14 04:07:47;;;;;;;8.20;2.75;;;;;;;;;;5014203;28;20045;-80
2023/09/14 04:10:13;;;;;;;10.60;2.78;;;;;;;;;;5034400;28;20041;-80
2023/09/14 04:12:42;;;;;;;8.27;2.85;;;;;;;;;;5034089;28;20046;-80
2023/09/14 04:15:09;;;;;;;9.32;3.08;;;;;;;;;;5032742;28;20045;-80
2023/09/14 04:17:35;;;;;;;8.43;3.05;;;;;;;;;;5032637;28;20053;-80
2023/09/14 04:20:05;;;;;;;7.10;2.95;;;;;;;;;;5032415;28;20045;-81
2023/09/14 04:22:31;;;;;;;5.47;2.78;;;;;;;;;;5029356;28;20069;-81
2023/09/14 04:24:57;;;;;;;6.22;2.60;;;;;;;;;;5032291;28;20135;-81
2023/09/14 04:27:23;;;;;;;6.28;2.70;;;;;;;;;;5015827;28;20080;-80
2023/09/14 04:29:49;;;;;;;6.63;2.92;;;;;;;;;;5033835;28;20064;-80
2023/09/14 04:32:15;;;;;;;7.25;2.72;;;;;;;;;;5015842;28;20493;-80
2023/09/14 04:34:41;;;;;;;5.47;2.85;;;;;;;;;;5014171;28;20042;-81
2023/09/14 04:37:07;;;;;;;10.60;3.28;;;;;;;;;;5015539;28;20054;-81
2023/09/14 04:39:34;;;;;;;8.23;3.28;;;;;;;;;;5015820;28;20044;-81
2023/09/14 04:42:00;;;;;;;8.18;3.10;;;;;;;;;;5033596;28;20049;-81
2023/09/14 04:44:26;;;;;;;8.00;3.20;;;;;;;;;;5015678;28;20071;-81
2023/09/14 04:46:52;;;;;;;6.85;3.20;;;;;;;;;;5033234;28;20045;-81
2023/09/14 04:49:18;;;;;;;8.10;3.13;;;;;;;;;;5015890;28;20044;-80
2023/09/14 04:51:47;;;;;;;6.93;3.40;;;;;;;;;;5015520;28;20136;-81
2023/09/14 04:54:13;;;;;;;5.18;2.95;;;;;;;;;;5013131;28;20049;-78
2023/09/14 04:56:39;;;;;;;9.57;3.55;;;;;;;;;;5013589;28;20052;-79
2023/09/14 04:59:05;;;;;;;8.85;3.30;;;;;;;;;;5032898;28;20049;-79
2023/09/14 05:01:31;;;;;;;7.15;3.40;;;;;;;;;;5015039;28;20102;-79
2023/09/14 05:03:57;;;;;;;6.82;3.00;;;;;;;;;;5014685;28;20041;-79
2023/09/14 05:06:23;;;;;;;7.30;3.15;;;;;;;;;;5014764;28;20053;-80
2023/09/14 05:08:49;;;;;;;8.27;3.05;;;;;;;;;;5015132;28;20047;-80
2023/09/14 05:11:15;;;;;;;8.75;2.90;;;;;;;;;;5033061;28;20046;-80
2023/09/14 05:13:41;;;;;;;8.52;2.92;;;;;;;;;;5014905;28;20045;-80
2023/09/14 05:16:07;;;;;;;8.02;2.72;;;;;;;;;;5014614;28;20462;-79
2023/09/14 05:18:33;;;;;;;6.20;2.63;;;;;;;;;;5030281;28;20041;-80
2023/09/14 05:20:59;;;;;;;7.95;2.67;;;;;;;;;;5014740;28;20056;-81
2023/09/14 05:23:25;;;;;;;9.07;2.80;;;;;;;;;;5031844;28;20057;-81
2023/09/14 05:25:51;;;;;;;7.97;2.90;;;;;;;;;;5032649;28;20053;-81
2023/09/14 05:28:17;;;;;;;6.93;2.75;;;;;;;;;;5031317;28;20086;-81
2023/09/14 05:30:43;;;;;;;8.68;3.05;;;;;;;;;;5031409;28;20401;-81
2023/09/14 05:33:09;;;;;;;8.40;2.95;;;;;;;;;;5031257;28;20092;-81
2023/09/14 05:35:36;;;;;;;10.05;2.92;;;;;;;;;;5031008;28;20389;-81
2023/09/14 05:38:02;;;;;;;10.15;2.72;;;;;;;;;;5030983;28;20482;-81
2023/09/14 05:40:28;;;;;;;6.40;2.90;;;;;;;;;;5032424;28;20379;-81
2023/09/14 05:42:54;;;;;;;7.20;3.08;;;;;;;;;;5031200;28;20106;-80
2023/09/14 05:45:20;;;;;;;8.35;2.90;;;;;;;;;;5030839;28;20045;-81
2023/09/14 05:47:46;;;;;;;6.53;2.80;;;;;;;;;;5030909;28;20056;-80
2023/09/14 05:50:12;;;;;;;10.68;2.78;;;;;;;;;;5031644;28;20072;-80
2023/09/14 05:52:38;;;;;;;9.43;3.05;;;;;;;;;;5031882;28;20045;-80
2023/09/14 05:55:04;;;;;;;8.35;2.90;;;;;;;;;;5030250;28;20180;-80
2023/09/14 05:57:31;;;;;;;9.88;2.80;;;;;;;;;;5031088;28;20049;-81
2023/09/14 05:59:57;;;;;;;8.75;3.00;;;;;;;;;;5030789;28;20148;-80
2023/09/14 06:02:24;;;;;;;8.60;3.08;;;;;;;;;;5029068;28;20057;-80
2023/09/14 06:04:51;;;;;;;7.20;2.83;;;;;;;;;;5031618;28;20132;-80
2023/09/14 06:07:17;;;;;;;10.93;3.08;;;;;;;;;;5030055;28;20041;-80
2023/09/14 06:09:43;;;;;;;6.15;2.78;;;;;;;;;;5030819;28;20048;-80
2023/09/14 06:12:09;;;;;;;7.20;2.72;;;;;;;;;;5032409;28;20132;-80
2023/09/14 06:14:37;;;;;;;21.50;3.70;;;;;;;;;;5030560;28;20111;-81
2023/09/14 06:17:03;;;;;;;9.43;3.22;;;;;;;;;;5032183;28;20453;-80
2023/09/14 06:19:29;;;;;;;10.15;3.00;;;;;;;;;;5030700;28;20045;-80
2023/09/14 06:21:55;;;;;;;11.18;3.15;;;;;;;;;;5026976;28;20503;-81
2023/09/14 06:24:21;;;;;;;7.55;2.70;;;;;;;;;;4994394;28;20064;-82
2023/09/14 06:26:48;;;;;;;8.07;3.10;;;;;;;;;;4995012;28;20618;-80
2023/09/14 06:29:16;;;;;;;8.40;2.92;;;;;;;;;;4995404;28;20057;-81
2023/09/14 06:31:42;;;;;;;13.98;2.92;;;;;;;;;;4994703;28;20049;-80
2023/09/14 06:34:08;;;;;;;9.88;3.10;;;;;;;;;;5012241;28;20524;-80
2023/09/14 06:36:34;;;;;;;8.82;2.70;;;;;;;;;;5012579;28;20045;-80
2023/09/14 06:39:01;;;;;;;7.38;3.17;;;;;;;;;;5012610;28;20077;-81
2023/09/14 06:41:27;;;;;;;8.68;3.00;;;;;;;;;;4995401;28;20065;-80
2023/09/14 06:43:53;;;;;;;8.63;2.90;;;;;;;;;;5000828;28;20042;-78
2023/09/14 06:46:19;;;;;;;9.63;2.50;;;;;;;;;;5008660;28;20089;-78
2023/09/14 06:48:45;;;;;;;9.73;2.97;;;;;;;;;;5019767;28;20061;-80
2023/09/14 06:51:11;;;;;;;9.20;2.92;;;;;;;;;;4998387;28;20401;-80
2023/09/14 06:53:37;;;;;;;6.57;2.42;;;;;;;;;;4995414;28;20129;-80
2023/09/14 06:56:07;;;;;;;10.80;2.47;;;;;;;;;;5014259;28;20176;-80
2023/09/14 06:58:33;;;;;;;7.60;2.47;;;;;;;;;;4997919;28;20058;-81
2023/09/14 07:01:04;;;;;;;7.85;2.80;;;;;;;;;;5015536;28;20509;-81
2023/09/14 07:03:32;;;;;;;6.15;2.28;;;;;;;;;;5014998;28;20045;-81
2023/09/14 07:05:58;;;;;;;4.30;2.03;;;;;;;;;;5015218;28;20053;-81
2023/09/14 07:08:25;;;;;;;6.85;2.40;;;;;;;;;;4997166;28;20049;-81
2023/09/14 07:10:51;;;;;;;5.30;2.10;;;;;;;;;;4995630;28;20136;-80
2023/09/14 07:13:20;;;;;;;4.90;2.40;;;;;;;;;;4997157;28;20157;-80
2023/09/14 07:15:46;;;;;;;7.38;2.50;;;;;;;;;;4997752;28;20099;-80
2023/09/14 07:18:25;;;;;;;6.53;2.40;;;;;;;;;;4997764;28;20049;-80
2023/09/14 07:20:52;;;;;;;8.77;2.20;;;;;;;;;;5015030;28;20053;-80
2023/09/14 07:23:18;;;;;;;5.72;2.10;;;;;;;;;;5012393;28;20053;-79
2023/09/14 07:25:44;;;;;;;9.32;2.25;;;;;;;;;;5034607;28;20100;-80
2023/09/14 07:28:12;;;;;;;7.93;2.30;;;;;;;;;;5034896;28;20045;-80
2023/09/14 07:30:38;;;;;;;7.93;2.25;;;;;;;;;;5034913;28;20128;-79
2023/09/14 07:33:05;;;;;;;5.10;1.67;;;;;;;;;;5034310;28;20398;-80
2023/09/14 07:35:31;;;;;;;4.90;1.73;;;;;;;;;;5032967;28;20053;-80
2023/09/14 07:37:57;;;;;;;7.45;2.03;;;;;;;;;;5034495;28;20053;-80
2023/09/14 07:40:23;;;;;;;6.57;1.70;;;;;;;;;;5033440;28;20484;-80
2023/09/14 07:42:49;;;;;;;7.13;2.00;;;;;;;;;;5015670;28;20049;-81
2023/09/14 07:45:15;;;;;;;4.93;1.85;;;;;;;;;;5032641;28;20060;-80
2023/09/14 07:47:41;;;;;;;4.75;1.85;;;;;;;;;;5034280;28;20049;-81
2023/09/14 07:50:08;;;;;;;6.45;2.33;;;;;;;;;;5016385;28;20493;-80
2023/09/14 07:52:34;;;;;;;8.88;2.42;;;;;;;;;;5032920;28;20480;-79
2023/09/14 07:55:02;;;;;;;6.18;2.08;;;;;;;;;;5032649;28;20130;-79
2023/09/14 07:57:29;;;;;;;7.40;2.20;;;;;;;;;;5034120;28;20136;-80
2023/09/14 07:59:55;;;;;;;6.60;2.47;;;;;;;;;;5033718;28;20050;-80
2023/09/14 08:02:21;;;;;;;7.80;2.15;;;;;;;;;;5016368;28;20450;-81
2023/09/14 08:04:47;;;;;;;6.05;2.20;;;;;;;;;;5032438;28;20053;-81
2023/09/14 08:07:15;;;;;;;5.13;2.17;;;;;;;;;;5032245;28;20057;-79
2023/09/14 08:09:41;;;;;;;4.70;2.10;;;;;;;;;;5032905;28;20385;-80
2023/09/14 08:12:07;;;;;;;6.03;2.00;;;;;;;;;;5031012;28;20103;-80
2023/09/14 08:14:33;;;;;;;5.20;2.13;;;;;;;;;;5030068;28;20136;-81
2023/09/14 08:16:59;;;;;;;5.43;2.25;;;;;;;;;;5032322;28;20041;-81
2023/09/14 08:19:26;;;;;;;5.53;1.90;;;;;;;;;;5033777;28;20053;-80
2023/09/14 08:21:52;;;;;;;5.10;2.03;;;;;;;;;;5033472;28;20509;-80
2023/09/14 08:24:19;;;;;;;5.65;2.00;;;;;;;;;;5012408;28;20057;-80
2023/09/14 08:26:45;;;;;;;10.23;2.40;;;;;;;;;;4996472;28;20498;-79
2023/09/14 08:29:12;;;;;;;6.85;2.10;;;;;;;;;;5012545;28;20049;-80
2023/09/14 08:31:38;;;;;;;5.45;1.90;;;;;;;;;;5011703;28;20057;-79
2023/09/14 08:34:04;;;;;;;4.60;1.95;;;;;;;;;;5013346;28;20066;-80
2023/09/14 08:36:30;;;;;;;8.63;2.08;;;;;;;;;;5012099;28;20060;-80
2023/09/14 08:38:56;;;;;;;7.13;2.00;;;;;;;;;;5011746;28;20056;-80
2023/09/14 08:41:43;;;;;;;6.82;1.98;;;;;;;;;;5013230;28;20130;-80
2023/09/14 08:44:09;;;;;;;6.60;2.10;;;;;;;;;;5013313;28;20526;-80
2023/09/14 08:46:36;;;;;;;8.65;2.00;;;;;;;;;;4995641;28;20049;-81
2023/09/14 08:49:03;;;;;;;5.95;2.17;;;;;;;;;;4995452;28;20053;-80
2023/09/14 08:51:30;;;;;;;7.07;2.22;;;;;;;;;;5013265;28;20049;-80
2023/09/14 08:53:56;;;;;;;6.10;2.00;;;;;;;;;;4996002;28;20390;-79
2023/09/14 08:56:23;;;;;;;8.43;2.00;;;;;;;;;;4996013;28;20409;-80
2023/09/14 08:58:49;;;;;;;10.75;2.10;;;;;;;;;;4995777;28;20056;-80
2023/09/14 09:01:17;;;;;;;6.25;2.13;;;;;;;;;;4995391;28;20042;-81
2023/09/14 09:03:43;;;;;;;6.00;2.03;;;;;;;;;;4994913;28;20057;-80
2023/09/14 09:06:10;;;;;;;5.65;1.73;;;;;;;;;;5011514;28;20099;-81
2023/09/14 09:08:36;;;;;;;8.10;2.08;;;;;;;;;;5012768;28;20042;-81
2023/09/14 09:11:03;;;;;;;6.78;2.08;;;;;;;;;;5009576;28;20046;-80
2023/09/14 09:13:33;;;;;;;5.90;1.80;;;;;;;;;;4994299;28;20053;-80
2023/09/14 09:15:59;;;;;;;5.32;1.90;;;;;;;;;;4994761;28;20053;-80
2023/09/14 09:18:26;;;;;;;9.15;2.15;;;;;;;;;;4993794;28;20054;-81
2023/09/14 09:20:52;;;;;;;9.98;3.13;;;;;;;;;;5011432;28;20046;-80
2023/09/14 09:23:20;;;;;;;4.90;1.80;;;;;;;;;;4985038;28;20050;-81
2023/09/14 09:25:52;;;;;;;6.25;2.10;;;;;;;;;;4975587;28;20495;-81
2023/09/14 09:28:18;;;;;;;8.05;2.10;;;;;;;;;;4975902;28;20038;-81
2023/09/14 09:30:44;;;;;;;9.63;2.15;;;;;;;;;;4992824;28;20062;-81
2023/09/14 09:33:11;;;;;;;6.70;2.00;;;;;;;;;;4992780;28;20384;-81
2023/09/14 09:35:38;;;;;;;7.20;1.90;;;;;;;;;;4993172;28;20100;-81
2023/09/14 09:38:14;;;;;;;5.45;1.95;;;;;;;;;;5009105;28;20050;-81
2023/09/14 09:40:41;;;;;;;6.88;2.05;;;;;;;;;;5011011;28;20475;-82
2023/09/14 09:43:07;;;;;;;7.10;2.03;;;;;;;;;;4992548;28;20049;-81
2023/09/14 09:45:33;;;;;;;6.93;2.10;;;;;;;;;;4993057;28;20068;-82
2023/09/14 09:48:03;;;;;;;9.23;2.00;;;;;;;;;;4993468;28;20179;-81
2023/09/14 09:50:29;;;;;;;6.82;2.28;;;;;;;;;;4995342;28;20061;-82
2023/09/14 09:52:55;;;;;;;5.05;2.15;;;;;;;;;;4994878;28;20042;-81
2023/09/14 09:55:22;;;;;;;5.55;2.00;;;;;;;;;;5012478;28;20061;-81
2023/09/14 09:57:52;;;;;;;5.78;2.17;;;;;;;;;;5012534;28;20045;-81
2023/09/14 10:00:19;;;;;;;8.50;1.95;;;;;;;;;;4994682;28;20059;-80
2023/09/14 10:02:46;;;;;;;4.93;1.95;;;;;;;;;;4995153;28;20447;-81
2023/09/14 10:05:13;;;;;;;6.47;1.80;;;;;;;;;;4994993;28;20402;-81
2023/09/14 10:07:40;;;;;;;5.35;1.70;;;;;;;;;;4995146;28;20062;-81
2023/09/14 10:10:10;;;;;;;8.90;2.13;;;;;;;;;;5017632;28;20042;-79
2023/09/14 10:12:38;;;;;;;7.88;2.35;;;;;;;;;;5007972;28;20061;-79
2023/09/14 10:15:05;;;;;;;5.10;1.90;;;;;;;;;;5001371;28;20058;-80
2023/09/14 10:17:32;;;;;;;6.45;2.00;;;;;;;;;;5012529;28;20088;-80
2023/09/14 10:20:01;;;;;;;6.15;1.95;;;;;;;;;;5012785;28;20125;-81
2023/09/14 10:22:27;;;;;;;7.43;1.90;;;;;;;;;;4988412;28;20488;-80
2023/09/14 10:24:54;;;;;;;5.70;1.92;;;;;;;;;;4998673;28;20065;-80
2023/09/14 10:27:20;;;;;;;4.88;1.90;;;;;;;;;;5015189;28;20049;-81
2023/09/14 10:29:47;;;;;;;5.88;1.90;;;;;;;;;;5014677;28;20129;-81
2023/09/14 10:32:15;;;;;;;4.93;1.90;;;;;;;;;;5015872;28;20220;-81
2023/09/14 10:34:41;;;;;;;5.22;1.90;;;;;;;;;;5014454;28;20057;-81
2023/09/14 10:37:11;;;;;;;6.30;1.80;;;;;;;;;;5016432;28;20046;-81
2023/09/14 10:39:38;;;;;;;4.60;2.00;;;;;;;;;;4998337;28;20137;-81
2023/09/14 10:42:05;;;;;;;6.15;2.13;;;;;;;;;;4996875;28;20054;-81
2023/09/14 10:44:32;;;;;;;6.93;2.00;;;;;;;;;;5015630;28;20145;-82
2023/09/14 10:47:00;;;;;;;5.28;1.90;;;;;;;;;;5015497;28;20053;-81
2023/09/14 10:49:29;;;;;;;6.68;2.05;;;;;;;;;;5016057;28;20133;-82
2023/09/14 10:51:55;;;;;;;4.95;1.80;;;;;;;;;;4997671;28;20038;-79
2023/09/14 10:54:25;;;;;;;5.68;2.10;;;;;;;;;;4997379;28;20103;-80
2023/09/14 10:56:58;;;;;;;5.75;2.30;;;;;;;;;;4998159;28;20078;-81
2023/09/14 10:59:58;;;;;;;7.05;2.30;;;;;;;;;;5015206;28;20482;-81
2023/09/14 11:02:39;;;;;;;6.32;2.15;;;;;;;;;;4966574;28;20529;-81
2023/09/14 11:05:23;;;;;;;8.93;2.22;;;;;;;;;;4997213;28;20124;-81
2023/09/14 11:08:00;;;;;;;6.28;2.22;;;;;;;;;;5013749;28;20061;-81
2023/09/14 11:10:27;;;;;;;8.52;2.40;;;;;;;;;;4997421;28;20100;-80
2023/09/14 11:13:13;;;;;;;8.90;2.22;;;;;;;;;;4998225;28;20058;-80
2023/09/14 11:15:39;;;;;;;6.00;2.10;;;;;;;;;;5012622;28;20060;-81
2023/09/14 11:18:05;;;;;;;7.32;2.30;;;;;;;;;;5013637;28;20042;-81
2023/09/14 11:20:38;;;;;;;7.68;2.42;;;;;;;;;;5013906;28;20072;-81
2023/09/14 11:23:04;;;;;;;6.45;2.08;;;;;;;;;;5028807;28;20092;-79
2023/09/14 11:25:32;;;;;;;6.50;2.17;;;;;;;;;;5033436;28;20049;-82
2023/09/14 11:27:58;;;;;;;5.75;2.20;;;;;;;;;;5033578;28;20068;-81
2023/09/14 11:30:26;;;;;;;9.77;2.47;;;;;;;;;;5033612;28;20465;-82
2023/09/14 11:32:53;;;;;;;8.15;2.15;;;;;;;;;;5034301;28;20049;-80
2023/09/14 11:35:19;;;;;;;7.18;2.15;;;;;;;;;;5033538;28;20049;-81
2023/09/14 11:37:46;;;;;;;10.98;2.72;;;;;;;;;;5035134;28;20432;-80
2023/09/14 11:40:15;;;;;;;6.90;2.28;;;;;;;;;;5034616;28;20136;-81
2023/09/14 11:42:59;;;;;;;8.00;2.15;;;;;;;;;;5016492;28;20136;-80
2023/09/14 11:45:26;;;;;;;6.97;2.30;;;;;;;;;;5033027;28;20505;-81
2023/09/14 11:47:52;;;;;;;8.68;2.30;;;;;;;;;;5032931;28;20045;-81
2023/09/14 11:50:20;;;;;;;6.43;2.35;;;;;;;;;;5016785;28;20103;-81
2023/09/14 11:52:47;;;;;;;6.68;2.08;;;;;;;;;;5034086;28;20127;-81
2023/09/14 11:55:19;;;;;;;6.28;2.30;;;;;;;;;;5032954;28;20135;-81
2023/09/14 11:57:46;;;;;;;4.97;2.10;;;;;;;;;;5033336;28;20045;-81
2023/09/14 12:00:12;;;;;;;6.32;2.40;;;;;;;;;;5032397;28;20049;-82
2023/09/14 12:02:38;;;;;;;6.97;2.45;;;;;;;;;;5016794;28;20050;-82
2023/09/14 12:05:05;;;;;;;9.48;2.67;;;;;;;;;;5032642;28;20084;-82
2023/09/14 12:07:31;;;;;;;6.57;2.35;;;;;;;;;;5032431;28;20107;-80
2023/09/14 12:09:59;;;;;;;5.53;2.22;;;;;;;;;;5032850;28;20056;-80
2023/09/14 12:12:28;;;;;;;8.57;2.30;;;;;;;;;;5014026;28;20607;-80
2023/09/14 12:14:55;;;;;;;7.10;2.35;;;;;;;;;;5033452;28;20049;-80
2023/09/14 12:17:22;;;;;;;6.05;2.30;;;;;;;;;;5032275;28;20128;-81
2023/09/14 12:19:59;;;;;;;7.28;2.53;;;;;;;;;;5033345;28;20502;-80
2023/09/14 12:22:27;;;;;;;7.40;2.78;;;;;;;;;;5015474;28;20471;-80
2023/09/14 12:24:53;;;;;;;7.22;2.33;;;;;;;;;;5015614;28;20049;-80
2023/09/14 12:27:20;;;;;;;7.30;2.25;;;;;;;;;;5030709;28;20053;-80
2023/09/14 12:29:46;;;;;;;8.85;2.35;;;;;;;;;;5013711;28;20042;-80
2023/09/14 12:32:13;;;;;;;7.85;2.53;;;;;;;;;;5012756;28;20419;-81
2023/09/14 12:34:39;;;;;;;4.65;2.20;;;;;;;;;;5012035;28;20116;-81
2023/09/14 12:37:06;;;;;;;9.98;2.35;;;;;;;;;;5012359;28;20113;-81
2023/09/14 12:39:33;;;;;;;6.45;2.40;;;;;;;;;;5009885;28;20092;-81
2023/09/14 12:42:01;;;;;;;4.85;2.05;;;;;;;;;;5013233;28;20804;-81
2023/09/14 12:44:27;;;;;;;9.40;2.40;;;;;;;;;;5011940;28;20085;-80
2023/09/14 12:46:54;;;;;;;9.70;2.88;;;;;;;;;;4995303;28;20046;-81
2023/09/14 12:49:20;;;;;;;6.47;2.38;;;;;;;;;;5010917;28;20137;-81
2023/09/14 12:51:47;;;;;;;6.85;2.40;;;;;;;;;;5010946;28;20053;-82
2023/09/14 12:54:17;;;;;;;7.18;2.38;;;;;;;;;;4994385;28;20045;-81
2023/09/14 12:56:44;;;;;;;6.97;2.70;;;;;;;;;;5011742;28;20049;-81
2023/09/14 12:59:10;;;;;;;7.80;2.50;;;;;;;;;;5010334;28;20100;-81
2023/09/14 13:01:39;;;;;;;6.30;2.58;;;;;;;;;;5013473;28;20069;-80
2023/09/14 13:04:06;;;;;;;7.35;2.30;;;;;;;;;;4995363;28;20081;-81
2023/09/14 13:06:32;;;;;;;8.57;3.08;;;;;;;;;;5013040;28;20096;-81
2023/09/14 13:08:59;;;;;;;7.53;2.50;;;;;;;;;;5012903;28;20491;-82
2023/09/14 13:11:31;;;;;;;4.68;2.40;;;;;;;;;;5011707;28;20509;-82
2023/09/14 13:13:59;;;;;;;6.82;2.65;;;;;;;;;;4995304;28;20104;-81
2023/09/14 13:16:27;;;;;;;7.40;2.42;;;;;;;;;;5011326;28;20073;-81
2023/09/14 13:18:53;;;;;;;6.90;2.55;;;;;;;;;;5011566;28;20120;-81
2023/09/14 13:21:19;;;;;;;9.73;2.70;;;;;;;;;;5011159;28;20053;-81
2023/09/14 13:23:46;;;;;;;7.47;2.45;;;;;;;;;;5012168;28;20099;-81
2023/09/14 13:26:12;;;;;;;8.90;2.63;;;;;;;;;;4996119;28;20089;-81
2023/09/14 13:28:38;;;;;;;6.65;2.50;;;;;;;;;;4995470;28;20046;-81
2023/09/14 13:31:04;;;;;;;6.75;2.40;;;;;;;;;;5012512;28;20108;-81
2023/09/14 13:33:30;;;;;;;5.28;2.65;;;;;;;;;;5011731;28;20037;-81
2023/09/14 13:36:00;;;;;;;6.57;2.30;;;;;;;;;;4995502;28;20154;-80
2023/09/14 13:38:30;;;;;;;6.13;2.53;;;;;;;;;;5014533;28;20129;-80
2023/09/14 13:40:56;;;;;;;6.72;2.80;;;;;;;;;;5026878;28;20050;-77
2023/09/14 13:43:23;;;;;;;8.23;2.30;;;;;;;;;;5006287;28;20133;-80
2023/09/14 13:45:51;;;;;;;6.35;2.65;;;;;;;;;;4995515;28;20050;-80
2023/09/14 13:48:19;;;;;;;8.60;3.17;;;;;;;;;;4995473;28;20077;-81
2023/09/14 13:50:45;;;;;;;9.02;2.97;;;;;;;;;;5011564;28;20034;-80
2023/09/14 13:53:11;;;;;;;8.82;2.60;;;;;;;;;;4993316;28;20050;-81
2023/09/14 13:55:39;;;;;;;9.88;2.72;;;;;;;;;;5012532;28;20123;-80
2023/09/14 13:58:06;;;;;;;9.93;3.03;;;;;;;;;;4980848;28;20050;-81
2023/09/14 14:00:33;;;;;;;8.85;2.80;;;;;;;;;;5016487;28;20057;-81
2023/09/14 14:03:06;;;;;;;8.00;2.80;;;;;;;;;;5016487;28;20061;-82
2023/09/14 14:05:32;;;;;;;8.45;2.80;;;;;;;;;;5016345;28;20081;-81
2023/09/14 14:07:58;;;;;;;6.28;2.60;;;;;;;;;;4998732;28;20120;-81
2023/09/14 14:10:25;;;;;;;6.10;2.55;;;;;;;;;;4996057;28;20046;-81
2023/09/14 14:12:51;;;;;;;7.40;2.63;;;;;;;;;;4997016;28;20049;-81
2023/09/14 14:15:17;;;;;;;5.40;2.63;;;;;;;;;;5016456;28;20402;-81
2023/09/14 14:17:43;;;;;;;6.40;2.75;;;;;;;;;;4998644;28;20057;-80
2023/09/14 14:20:09;;;;;;;6.38;2.95;;;;;;;;;;5015947;28;20049;-81
2023/09/14 14:22:35;;;;;;;6.97;2.70;;;;;;;;;;5025199;28;20107;-81
2023/09/14 14:25:03;;;;;;;6.65;2.75;;;;;;;;;;5032567;28;20064;-81
2023/09/14 14:27:29;;;;;;;6.35;2.78;;;;;;;;;;5018378;28;20041;-81
2023/09/14 14:29:55;;;;;;;5.78;2.40;;;;;;;;;;5035167;28;20132;-81
2023/09/14 14:32:21;;;;;;;7.05;2.60;;;;;;;;;;5033236;28;20120;-81
2023/09/14 14:34:47;;;;;;;8.32;2.92;;;;;;;;;;5035342;28;20045;-81
2023/09/14 14:37:13;;;;;;;5.60;2.78;;;;;;;;;;5017642;28;20057;-82
2023/09/14 14:39:39;;;;;;;10.07;2.85;;;;;;;;;;5034433;28;20154;-81
2023/09/14 14:42:05;;;;;;;7.60;2.70;;;;;;;;;;5035529;28;20050;-81